Terminal Aerodrome Forecast
Issued by NWS

Current Version | Previous Version | Graphics & Text | Print | Product List | Glossary On
Versions: 1 2 3 4 5 6 7 8 9 10 11 12 13 14 15 16 17 18 19 20 21 22 23 24 25 26 27 28 29 30 31 32 33 34 35 36 37 38 39 40
000
FTUS41 KRNK 301129
TAFLWB
TAF
KLWB 301129Z 3012/0112 00000KT 2SM BR SCT007
      TEMPO 3012/3014 1/2SM FG BKN001
     FM301400 00000KT 4SM BR SCT003
     FM301500 30003KT P6SM SCT030
     FM010800 00000KT 1/2SM FG OVC001=

USA.gov is the U.S. government's official web portal to all federal, state and local government web resources and services.